Time;durP1;ratioP1;P1;durP2;ratioP2;P2;SDS_P1;SDS_P2;PMS_P1;PMS_P2;Temp;Humidity;BMP_temperature;BMP_pressure;BME280_temperature;BME280_humidity;BME280_pressure;Samples;Min_cycle;Max_cycle;Signal;HPM_P1;HPM_P2
2022/04/02 00:00:28;;;;;;;7.50;2.10;;;;;;;1.65;56.02;99183.03;5061210;28;20047;-70
2022/04/02 00:02:57;;;;;;;6.28;2.33;;;;;;;1.61;56.38;99184.09;5059816;28;20050;-72
2022/04/02 00:05:25;;;;;;;4.68;2.20;;;;;;;1.57;56.36;99180.84;5053411;28;20044;-71
2022/04/02 00:07:50;;;;;;;6.88;2.20;;;;;;;1.54;56.54;99175.81;5055964;28;20121;-70
2022/04/02 00:10:15;;;;;;;13.15;1.90;;;;;;;1.52;56.81;99180.22;5060727;28;20066;-71
2022/04/02 00:12:41;;;;;;;14.00;2.45;;;;;;;1.54;56.97;99178.41;5056140;28;20052;-70
2022/04/02 00:15:06;;;;;;;9.60;2.95;;;;;;;1.53;56.73;99176.72;5060392;28;20041;-69
2022/04/02 00:17:33;;;;;;;9.02;2.00;;;;;;;1.50;57.02;99181.19;5059289;28;20121;-71
2022/04/02 00:19:58;;;;;;;11.27;3.08;;;;;;;1.39;56.98;99176.53;5060733;28;20041;-71
2022/04/02 00:22:24;;;;;;;8.70;2.03;;;;;;;1.30;57.52;99180.41;5066166;28;20032;-73
2022/04/02 00:24:49;;;;;;;6.45;2.08;;;;;;;1.31;57.54;99182.06;5071725;28;20081;-72
2022/04/02 00:27:14;;;;;;;5.03;1.88;;;;;;;1.25;57.71;99179.75;5065945;28;20530;-71
2022/04/02 00:29:41;;;;;;;6.72;2.00;;;;;;;1.15;57.96;99187.13;5066345;28;20040;-71
2022/04/02 00:32:07;;;;;;;5.88;2.05;;;;;;;1.14;58.09;99189.75;5067822;28;20498;-70
2022/04/02 00:34:32;;;;;;;9.70;2.38;;;;;;;1.09;58.45;99189.97;5064778;28;20027;-73
2022/04/02 00:36:58;;;;;;;6.50;2.28;;;;;;;1.04;58.34;99188.50;5066320;28;20024;-72
2022/04/02 00:39:23;;;;;;;7.35;2.03;;;;;;;1.00;58.84;99190.38;5066632;28;20472;-72
2022/04/02 00:41:48;;;;;;;6.93;2.72;;;;;;;0.95;58.57;99189.75;5069241;28;20036;-72
2022/04/02 00:44:20;;;;;;;11.45;2.63;;;;;;;0.91;59.50;99196.81;5069995;28;20033;-73
2022/04/02 00:46:47;;;;;;;5.47;2.30;;;;;;;0.87;59.28;99194.44;5071296;28;20040;-73
2022/04/02 00:49:14;;;;;;;9.80;2.40;;;;;;;0.82;59.48;99206.72;5052751;28;20028;-73
2022/04/02 00:51:41;;;;;;;11.23;1.80;;;;;;;0.79;59.63;99204.28;5070697;28;20051;-73
2022/04/02 00:54:13;;;;;;;9.30;2.30;;;;;;;0.76;59.57;99210.38;5070574;28;20029;-71
2022/04/02 00:56:39;;;;;;;7.55;2.30;;;;;;;0.72;59.71;99208.84;5071438;28;20046;-71
2022/04/02 00:59:05;;;;;;;5.45;2.22;;;;;;;0.68;59.58;99210.72;5052802;28;20033;-70
2022/04/02 01:01:34;;;;;;;9.98;2.53;;;;;;;0.65;59.99;99210.88;5073989;28;20025;-72
2022/04/02 01:04:01;;;;;;;12.07;2.38;;;;;;;0.61;60.05;99216.22;5078392;28;20154;-72
2022/04/02 01:06:27;;;;;;;3.92;1.63;;;;;;;0.61;60.19;99214.47;5070867;28;20044;-72
2022/04/02 01:08:54;;;;;;;7.28;2.20;;;;;;;0.56;60.07;99208.69;5069352;28;20033;-69
2022/04/02 01:11:19;;;;;;;9.13;2.63;;;;;;;0.54;60.56;99202.75;5071355;28;20040;-74
2022/04/02 01:13:44;;;;;;;9.13;2.28;;;;;;;0.56;60.47;99213.84;5069717;28;20041;-72
2022/04/02 01:16:12;;;;;;;5.40;2.10;;;;;;;0.55;60.60;99222.47;5066391;28;20039;-71
2022/04/02 01:18:38;;;;;;;11.30;2.40;;;;;;;0.51;60.39;99222.69;5053616;28;20036;-71
2022/04/02 01:21:03;;;;;;;4.00;1.85;;;;;;;0.49;60.58;99222.75;5061592;28;20429;-69
2022/04/02 01:23:29;;;;;;;7.68;2.00;;;;;;;0.50;60.76;99228.75;5066352;28;20628;-71
2022/04/02 01:25:59;;;;;;;5.85;2.30;;;;;;;0.46;60.68;99225.47;5070700;28;20033;-71
2022/04/02 01:28:24;;;;;;;9.35;1.70;;;;;;;0.44;61.02;99240.16;5068053;28;20089;-71
2022/04/02 01:30:50;;;;;;;4.88;1.92;;;;;;;0.44;61.26;99243.56;5053073;28;20112;-71
2022/04/02 01:33:15;;;;;;;8.00;2.08;;;;;;;0.41;60.94;99240.31;5067180;28;20043;-70
2022/04/02 01:35:41;;;;;;;5.45;1.98;;;;;;;0.39;61.38;99245.50;5081695;28;20509;-71
2022/04/02 01:38:06;;;;;;;7.28;2.22;;;;;;;0.37;61.34;99247.31;5072461;28;20039;-72
2022/04/02 01:40:32;;;;;;;5.72;2.55;;;;;;;0.33;61.05;99242.34;5071060;28;20028;-70
2022/04/02 01:42:57;;;;;;;7.32;2.00;;;;;;;0.32;61.23;99246.66;5065948;28;20031;-72
2022/04/02 01:45:22;;;;;;;7.70;2.15;;;;;;;0.29;61.41;99244.22;5069724;28;20115;-68
2022/04/02 01:47:50;;;;;;;8.85;2.97;;;;;;;0.26;61.47;99241.78;5069546;28;20124;-67
2022/04/02 01:50:16;;;;;;;6.85;2.88;;;;;;;0.23;61.37;99247.91;5064980;28;20036;-70
2022/04/02 01:52:41;;;;;;;8.05;2.35;;;;;;;0.22;61.71;99256.53;5067612;28;20032;-70
2022/04/02 01:55:07;;;;;;;10.82;2.42;;;;;;;0.19;61.56;99250.66;5070193;28;20024;-71
2022/04/02 01:57:33;;;;;;;11.27;2.17;;;;;;;0.17;61.73;99253.28;5062803;28;20031;-69
2022/04/02 01:59:58;;;;;;;6.15;1.85;;;;;;;0.13;61.91;99246.59;5069297;28;20036;-70
2022/04/02 02:02:23;;;;;;;5.38;1.98;;;;;;;0.14;61.85;99253.41;5066572;28;20039;-70
2022/04/02 02:04:48;;;;;;;5.05;2.10;;;;;;;0.12;61.51;99244.94;5068286;28;20032;-69
2022/04/02 02:07:14;;;;;;;6.68;2.10;;;;;;;0.10;61.34;99245.88;5068942;28;20103;-71
2022/04/02 02:09:39;;;;;;;5.30;1.70;;;;;;;0.09;61.61;99254.53;5070381;28;20055;-71
2022/04/02 02:12:05;;;;;;;11.18;2.47;;;;;;;0.10;61.91;99246.72;5069912;28;20101;-70
2022/04/02 02:14:31;;;;;;;9.52;2.40;;;;;;;0.10;61.96;99254.44;5068864;28;20028;-70
2022/04/02 02:16:57;;;;;;;3.88;1.85;;;;;;;0.05;61.91;99247.81;5067450;28;20041;-71
2022/04/02 02:19:22;;;;;;;6.80;2.10;;;;;;;0.07;61.81;99251.16;5068616;28;20038;-71
2022/04/02 02:21:47;;;;;;;9.52;2.08;;;;;;;0.04;61.80;99246.97;5069192;28;20024;-71
2022/04/02 02:24:13;;;;;;;5.32;1.90;;;;;;;0.02;61.56;99253.09;5068146;28;20044;-72
2022/04/02 02:26:39;;;;;;;5.32;2.05;;;;;;;0.03;62.02;99257.34;5069129;28;20029;-72
2022/04/02 02:29:06;;;;;;;7.90;1.98;;;;;;;-0.02;61.93;99250.63;5068497;28;20024;-69
2022/04/02 02:31:35;;;;;;;6.13;1.90;;;;;;;0.02;61.78;99260.81;5051256;28;20420;-68
2022/04/02 02:36:45;;;;;;;5.15;2.10;;;;;;;-0.02;61.86;99260.94;5069061;28;20157;-70
2022/04/02 02:39:10;;;;;;;8.50;2.00;;;;;;;-0.04;61.86;99260.19;5068496;28;20070;-68
2022/04/02 02:41:36;;;;;;;5.88;1.88;;;;;;;-0.03;61.88;99261.00;5067341;28;20136;-70
2022/04/02 02:44:02;;;;;;;7.63;2.38;;;;;;;-0.05;61.92;99260.22;5065126;28;20033;-71
2022/04/02 02:46:28;;;;;;;4.70;2.10;;;;;;;-0.02;62.00;99260.09;5068838;28;20091;-72
2022/04/02 02:48:53;;;;;;;3.92;1.77;;;;;;;-0.02;61.81;99270.41;5068543;28;20151;-67
2022/04/02 02:51:18;;;;;;;8.35;3.17;;;;;;;-0.03;61.67;99264.44;5068382;28;20036;-70
2022/04/02 02:53:44;;;;;;;5.80;2.13;;;;;;;-0.04;62.10;99270.50;5067513;28;20029;-68
2022/04/02 02:56:10;;;;;;;4.97;1.77;;;;;;;-0.03;62.04;99271.31;5068474;28;20040;-70
2022/04/02 02:58:35;;;;;;;8.55;2.08;;;;;;;-0.05;61.93;99261.06;5068444;28;20028;-71
2022/04/02 03:01:00;;;;;;;8.40;2.05;;;;;;;-0.05;62.21;99267.94;5067994;28;20156;-70
2022/04/02 03:03:27;;;;;;;5.10;2.13;;;;;;;-0.07;62.09;99270.59;5066248;28;20101;-71
2022/04/02 03:05:53;;;;;;;8.25;2.33;;;;;;;-0.06;62.06;99268.84;5067288;28;20036;-70
2022/04/02 03:08:19;;;;;;;4.60;2.50;;;;;;;-0.09;62.01;99266.41;5067721;28;20059;-70
2022/04/02 03:10:45;;;;;;;5.70;2.10;;;;;;;-0.08;62.38;99275.78;5068654;28;20128;-71
2022/04/02 03:13:10;;;;;;;4.38;1.95;;;;;;;-0.12;62.25;99269.09;5079133;28;20107;-69
2022/04/02 03:15:36;;;;;;;5.28;2.08;;;;;;;-0.15;62.62;99276.94;5071438;28;20029;-71
2022/04/02 03:18:04;;;;;;;8.75;1.85;;;;;;;-0.16;62.88;99283.00;5060109;28;20040;-71
2022/04/02 03:20:29;;;;;;;5.45;1.83;;;;;;;-0.20;62.66;99284.03;5067936;28;20056;-70
2022/04/02 03:22:55;;;;;;;8.02;2.03;;;;;;;-0.23;63.00;99278.97;5065032;28;20064;-71
2022/04/02 03:25:23;;;;;;;8.75;2.60;;;;;;;-0.28;63.16;99285.16;5074150;28;20394;-71
2022/04/02 03:27:48;;;;;;;7.63;2.17;;;;;;;-0.26;63.63;99292.81;5068776;28;20114;-71
2022/04/02 03:30:17;;;;;;;8.52;2.17;;;;;;;-0.19;63.47;99286.53;5068841;28;20839;-71
2022/04/02 03:32:42;;;;;;;10.48;2.45;;;;;;;-0.23;63.64;99289.28;5068285;28;20141;-71
2022/04/02 03:35:08;;;;;;;9.05;1.85;;;;;;;-0.30;63.67;99294.69;5066819;28;20609;-72
2022/04/02 03:37:38;;;;;;;5.97;2.35;;;;;;;-0.29;64.09;99298.09;5068033;28;20120;-72
2022/04/02 03:40:08;;;;;;;7.40;2.28;;;;;;;-0.33;64.27;99291.41;5068748;28;20028;-69
2022/04/02 03:42:37;;;;;;;6.70;2.40;;;;;;;-0.35;64.67;99299.16;5064783;28;20032;-69
2022/04/02 03:45:05;;;;;;;7.47;1.95;;;;;;;-0.33;64.73;99299.97;5064599;28;20040;-71
2022/04/02 03:47:31;;;;;;;7.13;2.28;;;;;;;-0.35;64.90;99306.88;5068206;28;20111;-68
2022/04/02 03:49:56;;;;;;;4.28;2.20;;;;;;;-0.38;65.12;99294.13;5067250;28;20066;-72
2022/04/02 03:52:21;;;;;;;5.28;2.00;;;;;;;-0.38;65.31;99301.03;5067638;28;20497;-71
2022/04/02 03:54:47;;;;;;;6.93;2.47;;;;;;;-0.44;65.50;99306.41;5067413;28;20107;-71
2022/04/02 03:57:14;;;;;;;5.97;2.17;;;;;;;-0.45;65.77;99315.84;5067906;28;20470;-71
2022/04/02 03:59:40;;;;;;;9.32;3.05;;;;;;;-0.45;65.85;99308.13;5067832;28;20044;-68
2022/04/02 04:02:06;;;;;;;7.85;2.63;;;;;;;-0.44;66.06;99314.16;5049296;28;20522;-72
2022/04/02 04:04:32;;;;;;;7.07;2.30;;;;;;;-0.44;66.33;99307.25;5065722;28;20055;-70
2022/04/02 04:06:58;;;;;;;15.43;2.90;;;;;;;-0.46;66.71;99316.75;5066880;28;20019;-71
2022/04/02 04:09:24;;;;;;;6.32;2.58;;;;;;;-0.52;66.87;99314.41;5065040;28;20494;-68
2022/04/02 04:11:50;;;;;;;11.18;3.65;;;;;;;-0.51;67.22;99323.81;5068301;28;20032;-71
2022/04/02 04:14:19;;;;;;;7.57;2.33;;;;;;;-0.56;67.29;99313.69;5067323;28;20093;-70
2022/04/02 04:16:45;;;;;;;5.63;2.22;;;;;;;-0.52;67.62;99323.00;5069394;28;20033;-68
2022/04/02 04:19:10;;;;;;;6.75;2.60;;;;;;;-0.50;67.42;99328.06;5071139;28;20021;-71
2022/04/02 04:21:36;;;;;;;6.97;2.53;;;;;;;-0.52;67.75;99322.13;5071465;28;20036;-71
2022/04/02 04:24:03;;;;;;;8.30;2.35;;;;;;;-0.54;67.92;99322.19;5070482;28;20029;-70
2022/04/02 04:26:28;;;;;;;9.50;2.33;;;;;;;-0.49;67.91;99324.59;5072169;28;20032;-69
2022/04/02 04:28:53;;;;;;;5.00;2.40;;;;;;;-0.47;68.19;99327.13;5071393;28;20104;-69
2022/04/02 04:31:19;;;;;;;7.95;2.28;;;;;;;-0.49;68.28;99332.31;5072015;28;20570;-73
2022/04/02 04:33:46;;;;;;;10.18;2.45;;;;;;;-0.47;68.14;99337.44;5069819;28;20506;-68
2022/04/02 04:36:11;;;;;;;14.48;2.97;;;;;;;-0.55;68.18;99333.41;5070596;28;20083;-71
2022/04/02 04:38:37;;;;;;;14.13;3.38;;;;;;;-0.54;68.53;99334.22;5071378;28;20060;-71
2022/04/02 04:41:03;;;;;;;6.38;2.33;;;;;;;-0.52;68.86;99341.00;5078165;28;20044;-71
2022/04/02 04:43:28;;;;;;;5.28;2.45;;;;;;;-0.50;68.74;99343.53;5078520;28;20076;-71
2022/04/02 04:45:54;;;;;;;9.10;2.85;;;;;;;-0.50;68.97;99344.34;5079876;28;20028;-68
2022/04/02 04:48:20;;;;;;;9.88;2.63;;;;;;;-0.58;69.09;99354.09;5067598;28;20520;-69
2022/04/02 04:50:46;;;;;;;8.38;2.25;;;;;;;-0.54;69.34;99358.25;5070418;28;20067;-71
2022/04/02 04:53:11;;;;;;;8.27;3.13;;;;;;;-0.56;69.34;99354.88;5048608;28;20199;-70
2022/04/02 04:55:36;;;;;;;10.80;3.00;;;;;;;-0.56;69.58;99351.47;5071287;28;20493;-71
2022/04/02 04:58:02;;;;;;;7.88;2.00;;;;;;;-0.53;69.17;99361.66;5065190;28;20102;-69
2022/04/02 05:00:27;;;;;;;10.65;4.85;;;;;;;-0.51;69.58;99359.88;5070794;28;20041;-68
2022/04/02 05:02:53;;;;;;;7.93;3.00;;;;;;;-0.49;69.55;99368.38;5069701;28;20037;-68
2022/04/02 05:05:20;;;;;;;8.25;3.17;;;;;;;-0.48;69.83;99364.91;5068481;28;20059;-73
2022/04/02 05:07:46;;;;;;;11.57;4.28;;;;;;;-0.52;70.21;99371.03;5066730;28;20063;-70
2022/04/02 05:10:11;;;;;;;9.77;3.72;;;;;;;-0.47;70.00;99370.91;5067430;28;20406;-76
2022/04/02 05:12:38;;;;;;;16.23;3.97;;;;;;;-0.52;70.14;99371.03;5069277;28;20040;-71
2022/04/02 05:15:09;;;;;;;10.45;4.03;;;;;;;-0.45;70.12;99377.66;5077823;28;20041;-70
2022/04/02 05:17:35;;;;;;;8.60;2.88;;;;;;;-0.42;70.06;99379.28;5072898;28;20048;-72
2022/04/02 05:20:02;;;;;;;8.82;2.80;;;;;;;-0.47;70.52;99376.88;5070007;28;20044;-71
2022/04/02 05:22:28;;;;;;;9.30;2.92;;;;;;;-0.46;70.67;99381.13;5070415;28;20105;-70
2022/04/02 05:24:53;;;;;;;9.27;2.28;;;;;;;-0.43;70.68;99391.31;5047906;28;20443;-68
2022/04/02 05:27:18;;;;;;;4.72;2.83;;;;;;;-0.35;70.36;99383.31;5052487;28;20039;-68
2022/04/02 05:29:44;;;;;;;7.82;2.95;;;;;;;-0.36;70.39;99389.38;5069920;28;20394;-68
2022/04/02 05:32:10;;;;;;;14.63;4.93;;;;;;;-0.37;70.90;99393.69;5052590;28;20047;-68
2022/04/02 05:34:35;;;;;;;6.03;2.60;;;;;;;-0.36;70.68;99397.94;5068921;28;20063;-68
2022/04/02 05:37:00;;;;;;;7.00;2.78;;;;;;;-0.35;71.01;99399.59;5070244;28;20518;-69
2022/04/02 05:39:26;;;;;;;7.70;2.50;;;;;;;-0.29;70.75;99408.84;5069549;28;20060;-69
2022/04/02 05:41:51;;;;;;;11.60;2.63;;;;;;;-0.29;70.90;99406.28;5068095;28;20029;-70
2022/04/02 05:44:17;;;;;;;6.32;2.78;;;;;;;-0.26;70.92;99409.59;5065782;28;20036;-71
2022/04/02 05:46:42;;;;;;;8.00;2.58;;;;;;;-0.19;71.22;99414.47;5070091;28;20024;-70
2022/04/02 05:49:07;;;;;;;16.15;3.17;;;;;;;-0.11;71.44;99417.59;5068808;28;20058;-72
2022/04/02 05:51:33;;;;;;;6.65;2.65;;;;;;;-0.08;71.05;99415.75;5069760;28;20040;-70
2022/04/02 05:53:59;;;;;;;6.70;2.42;;;;;;;0.05;71.24;99416.16;5067768;28;20031;-72
2022/04/02 05:56:25;;;;;;;12.60;2.90;;;;;;;-0.01;70.80;99418.94;5045027;28;20085;-71
2022/04/02 05:58:51;;;;;;;6.18;2.65;;;;;;;-0.07;70.78;99420.03;5069166;28;20069;-71
2022/04/02 06:01:17;;;;;;;8.80;2.30;;;;;;;-0.07;71.27;99427.78;5069635;28;20048;-69
2022/04/02 06:03:42;;;;;;;6.93;3.13;;;;;;;-0.08;71.56;99426.06;5068170;28;20761;-70
2022/04/02 06:06:09;;;;;;;5.90;2.28;;;;;;;-0.04;71.22;99432.81;5068644;28;20061;-70
2022/04/02 06:08:34;;;;;;;8.00;2.45;;;;;;;0.01;71.19;99427.47;5068312;28;20840;-69
2022/04/02 06:11:00;;;;;;;10.27;3.75;;;;;;;0.10;71.02;99434.84;5069658;28;20039;-72
2022/04/02 06:13:26;;;;;;;10.20;3.78;;;;;;;0.18;71.83;99431.97;5069208;28;20020;-72
2022/04/02 06:15:51;;;;;;;16.10;3.25;;;;;;;0.24;71.98;99435.16;5051429;28;20103;-72
2022/04/02 06:18:18;;;;;;;12.85;5.20;;;;;;;0.29;71.25;99439.28;5064915;28;20495;-71
2022/04/02 06:20:48;;;;;;;9.88;5.70;;;;;;;0.37;71.19;99445.84;5062533;28;20033;-71
2022/04/02 06:23:14;;;;;;;10.85;3.70;;;;;;;0.39;70.55;99444.03;5051928;28;20540;-71
2022/04/02 06:25:40;;;;;;;12.27;2.80;;;;;;;0.41;70.86;99450.00;5062163;28;20029;-70
2022/04/02 06:28:06;;;;;;;9.30;2.88;;;;;;;0.58;70.36;99451.06;5070166;28;20082;-71
2022/04/02 06:30:31;;;;;;;7.63;2.70;;;;;;;0.59;70.27;99452.72;5065291;28;20063;-72
2022/04/02 06:32:57;;;;;;;5.25;1.95;;;;;;;0.59;70.35;99455.31;5066973;28;20048;-71
2022/04/02 06:35:23;;;;;;;14.80;3.60;;;;;;;0.62;70.02;99456.03;5063829;28;20722;-71
2022/04/02 06:37:50;;;;;;;6.38;2.72;;;;;;;0.72;70.00;99459.94;5068291;28;20055;-70
2022/04/02 06:40:16;;;;;;;5.13;2.35;;;;;;;0.71;70.56;99460.84;5070060;28;20028;-71
2022/04/02 06:42:42;;;;;;;8.52;3.15;;;;;;;0.86;69.89;99459.38;5065849;28;20060;-70
2022/04/02 06:45:08;;;;;;;8.25;2.38;;;;;;;0.85;69.89;99462.00;5071311;28;20047;-71
2022/04/02 06:47:33;;;;;;;9.63;3.38;;;;;;;1.00;69.72;99463.94;5080967;28;20029;-70
2022/04/02 06:50:03;;;;;;;8.55;2.85;;;;;;;0.95;68.68;99460.75;5062079;28;20154;-71
2022/04/02 06:52:28;;;;;;;;;;;;;;;0.86;69.22;99458.53;5069077;28;20123;-71
2022/04/02 06:54:53;;;;;;;8.35;3.33;;;;;;;0.87;69.51;99460.22;5044715;28;20417;-71
2022/04/02 06:57:22;;;;;;;8.32;3.40;;;;;;;0.93;69.51;99462.56;5069274;28;20047;-71
2022/04/02 06:59:48;;;;;;;8.38;4.13;;;;;;;1.02;68.69;99462.16;5067891;28;20083;-71
2022/04/02 07:02:16;;;;;;;5.78;2.70;;;;;;;1.03;68.79;99456.09;5071662;28;20112;-71
2022/04/02 07:04:42;;;;;;;10.23;2.40;;;;;;;1.01;68.18;99457.91;5066970;28;20066;-71
2022/04/02 07:07:08;;;;;;;10.82;3.30;;;;;;;1.05;68.79;99469.78;5066521;28;20484;-71
2022/04/02 07:09:33;;;;;;;16.83;3.17;;;;;;;1.06;69.07;99471.47;5066220;28;20037;-70
2022/04/02 07:11:58;;;;;;;6.95;2.78;;;;;;;1.23;68.21;99472.50;5075796;28;20025;-70
2022/04/02 07:14:24;;;;;;;7.15;2.22;;;;;;;1.34;67.73;99454.81;5068588;28;20127;-70
2022/04/02 07:16:49;;;;;;;5.75;2.50;;;;;;;1.45;67.23;99468.13;5066656;28;20032;-70
2022/04/02 07:19:19;;;;;;;6.55;2.45;;;;;;;1.43;66.90;99472.50;5066253;28;20032;-70
2022/04/02 07:21:46;;;;;;;6.75;2.58;;;;;;;1.47;66.51;99480.97;5068171;28;20028;-71
2022/04/02 07:24:13;;;;;;;4.03;2.10;;;;;;;1.43;66.44;99475.91;5064840;28;20052;-70
2022/04/02 07:26:39;;;;;;;5.93;2.60;;;;;;;1.35;66.42;99480.56;5068223;28;20082;-70
2022/04/02 07:29:07;;;;;;;23.40;2.58;;;;;;;1.51;66.35;99487.66;5068700;28;20093;-72
2022/04/02 07:31:33;;;;;;;6.50;2.50;;;;;;;1.51;66.00;99485.91;5068050;28;20024;-70
2022/04/02 07:33:59;;;;;;;10.25;2.25;;;;;;;1.62;65.37;99488.03;5049458;28;20031;-71
2022/04/02 07:36:27;;;;;;;8.07;3.00;;;;;;;1.61;64.88;99492.38;5049683;28;20064;-69
2022/04/02 07:39:01;;;;;;;8.90;2.93;;;;;;;1.65;65.19;99513.75;5064963;28;20044;-72
2022/04/02 07:42:03;;;;;;;12.27;2.33;;;;;;;1.61;65.48;99489.78;5066520;28;20039;-70
2022/04/02 07:44:57;;;;;;;10.05;2.80;;;;;;;1.61;65.34;99494.13;5046273;28;20032;-71
2022/04/02 07:47:24;;;;;;;7.45;2.67;;;;;;;1.79;65.12;99500.25;5067807;28;20033;-72
2022/04/02 07:49:54;;;;;;;10.73;2.70;;;;;;;1.91;64.51;99504.88;5066517;28;20029;-71
2022/04/02 07:52:22;;;;;;;13.38;2.45;;;;;;;1.97;64.29;99511.53;5067575;28;20478;-70
2022/04/02 07:54:54;;;;;;;6.70;2.40;;;;;;;1.89;64.10;99512.72;5067276;28;20094;-71
2022/04/02 07:57:23;;;;;;;13.15;2.70;;;;;;;1.99;63.57;99502.78;5068184;28;20033;-72
2022/04/02 07:59:56;;;;;;;11.48;2.38;;;;;;;2.08;63.19;99504.13;5062852;28;20082;-74
2022/04/02 08:02:38;;;;;;;12.95;3.10;;;;;;;2.06;62.93;99511.09;5068414;28;20505;-73
2022/04/02 08:05:10;;;;;;;11.45;2.95;;;;;;;2.36;62.19;99509.72;5051067;28;20036;-73
2022/04/02 08:07:37;;;;;;;8.35;3.17;;;;;;;2.54;61.69;99518.38;5064913;28;20032;-75
2022/04/02 08:10:06;;;;;;;7.85;2.40;;;;;;;2.70;61.29;99515.06;5067225;28;20024;-72
2022/04/02 08:12:37;;;;;;;10.15;2.47;;;;;;;2.70;60.53;99513.31;5068800;28;20107;-72
2022/04/02 08:15:09;;;;;;;6.32;2.35;;;;;;;2.54;59.55;99513.22;5065633;28;20413;-73
2022/04/02 08:17:37;;;;;;;10.52;2.30;;;;;;;2.47;60.33;99522.16;5041535;28;20437;-72
2022/04/02 08:20:02;;;;;;;7.65;2.65;;;;;;;2.65;60.27;99516.13;5041839;28;20044;-70
2022/04/02 08:22:28;;;;;;;5.90;1.90;;;;;;;2.83;59.61;99523.94;5061317;28;20059;-70
2022/04/02 08:24:55;;;;;;;5.82;2.42;;;;;;;2.71;59.10;99520.19;5060690;28;20161;-71
2022/04/02 08:27:46;;;;;;;7.30;2.42;;;;;;;2.78;59.06;99519.00;5061096;28;20040;-71
2022/04/02 08:30:17;;;;;;;7.97;2.85;;;;;;;2.96;58.27;99525.03;5057749;28;20047;-70
2022/04/02 08:33:01;;;;;;;10.18;2.67;;;;;;;2.85;57.21;99527.28;5057310;28;20055;-70
2022/04/02 08:35:39;;;;;;;7.57;2.55;;;;;;;2.83;56.77;99521.38;5058723;28;20036;-70
2022/04/02 08:38:26;;;;;;;8.98;2.20;;;;;;;2.95;55.56;99522.53;5038320;28;20029;-69
2022/04/02 08:41:29;;;;;;;8.27;2.30;;;;;;;2.69;55.79;99531.53;5060364;28;20055;-71
2022/04/02 08:44:09;;;;;;;12.75;2.70;;;;;;;2.90;56.21;99533.09;5058480;28;20035;-69
2022/04/02 08:47:11;;;;;;;9.70;2.70;;;;;;;2.82;55.14;99533.47;5059918;28;20501;-68
2022/04/02 08:50:15;;;;;;;5.35;2.03;;;;;;;3.04;54.50;99535.88;5061519;28;20446;-68
2022/04/02 08:52:52;;;;;;;9.95;2.60;;;;;;;2.97;53.73;99538.84;5062424;28;20035;-68
2022/04/02 08:55:24;;;;;;;5.90;2.38;;;;;;;3.13;53.86;99540.59;5061801;28;20086;-69
2022/04/02 08:57:52;;;;;;;5.38;2.13;;;;;;;3.15;53.79;99537.91;5044005;28;20074;-70
2022/04/02 09:00:27;;;;;;;13.32;2.80;;;;;;;3.19;53.92;99544.66;5061579;28;20584;-69
2022/04/02 09:02:55;;;;;;;10.85;2.17;;;;;;;3.19;53.88;99549.84;5064271;28;20040;-70
2022/04/02 09:05:22;;;;;;;9.27;2.28;;;;;;;3.40;53.81;99541.00;5063001;28;20153;-68
2022/04/02 09:08:18;;;;;;;8.73;2.15;;;;;;;3.31;53.75;99535.44;5063599;28;20090;-70
2022/04/02 09:11:20;;;;;;;12.55;2.97;;;;;;;3.44;53.64;99538.25;5064918;28;20059;-70
2022/04/02 09:14:27;;;;;;;9.23;2.80;;;;;;;3.49;53.60;99547.50;5063450;28;20046;-70
2022/04/02 09:17:03;;;;;;;5.78;2.70;;;;;;;3.49;53.62;99550.06;4969359;28;20722;-71
2022/04/02 09:19:38;;;;;;;13.32;3.85;;;;;;;3.28;54.33;99554.56;5047441;28;20032;-68
2022/04/02 09:22:06;;;;;;;5.55;2.15;;;;;;;3.22;53.74;99554.00;5063153;28;20020;-70
2022/04/02 09:24:54;;;;;;;6.85;2.17;;;;;;;3.27;53.98;99557.22;5058714;28;20115;-70
2022/04/02 09:27:38;;;;;;;5.07;2.10;;;;;;;3.55;53.40;99557.53;5063634;28;20145;-68
2022/04/02 09:30:17;;;;;;;7.28;2.38;;;;;;;3.35;52.16;99562.88;5062742;28;20691;-70
2022/04/02 09:33:14;;;;;;;6.30;2.13;;;;;;;3.45;52.53;99558.91;5066896;28;20654;-69
2022/04/02 09:36:02;;;;;;;3.97;1.83;;;;;;;3.69;51.68;99556.00;5066454;28;20040;-70
2022/04/02 09:38:42;;;;;;;6.10;2.43;;;;;;;3.78;51.44;99551.22;5067110;28;20037;-71
2022/04/02 09:41:27;;;;;;;6.82;2.10;;;;;;;3.74;50.92;99562.63;5068000;28;20060;-69
2022/04/02 09:44:00;;;;;;;7.00;3.17;;;;;;;3.79;50.57;99555.47;5068591;28;20390;-69
2022/04/02 09:46:52;;;;;;;6.28;2.20;;;;;;;3.63;50.68;99558.00;5050837;28;20082;-68
2022/04/02 09:49:35;;;;;;;6.53;2.65;;;;;;;3.55;50.36;99557.53;5068298;28;20091;-72
2022/04/02 09:52:05;;;;;;;5.40;1.90;;;;;;;3.64;50.02;99564.88;5068291;28;20075;-69
2022/04/02 09:54:36;;;;;;;5.28;2.20;;;;;;;3.72;49.48;99553.28;5063527;28;20115;-71
2022/04/02 09:57:09;;;;;;;8.20;2.38;;;;;;;3.98;49.61;99555.38;5047925;28;20140;-72
2022/04/02 09:59:46;;;;;;;11.27;2.28;;;;;;;4.21;49.12;99559.34;5066708;28;20071;-69
2022/04/02 10:02:39;;;;;;;6.93;2.22;;;;;;;4.41;48.02;99558.28;5065807;28;20036;-69
2022/04/02 10:05:07;;;;;;;5.65;2.00;;;;;;;4.55;47.05;99563.56;5065945;28;20144;-69
2022/04/02 10:07:54;;;;;;;6.57;2.70;;;;;;;4.94;46.39;99559.75;5068228;28;20066;-70
2022/04/02 10:10:26;;;;;;;6.05;2.30;;;;;;;4.97;46.87;99563.91;5068801;28;20032;-68
2022/04/02 10:12:53;;;;;;;5.50;2.00;;;;;;;4.67;46.07;99562.06;5057035;28;20197;-69
2022/04/02 10:15:21;;;;;;;8.88;2.67;;;;;;;4.43;46.43;99572.03;5059948;28;20037;-70
2022/04/02 10:17:52;;;;;;;8.15;2.65;;;;;;;4.59;45.74;99561.66;5062841;28;20173;-71
2022/04/02 10:20:28;;;;;;;9.40;4.45;;;;;;;4.38;46.16;99566.25;5059264;28;20080;-72
2022/04/02 10:23:11;;;;;;;10.25;2.22;;;;;;;4.39;47.11;99559.31;5069156;28;20036;-69
2022/04/02 10:25:54;;;;;;;5.10;2.17;;;;;;;4.60;46.59;99569.38;5069924;28;20048;-73
2022/04/02 10:28:29;;;;;;;7.15;2.50;;;;;;;4.75;46.65;99570.31;5070332;28;20545;-69
2022/04/02 10:30:57;;;;;;;7.63;2.30;;;;;;;4.72;46.45;99572.22;5067514;28;20036;-71
2022/04/02 10:33:28;;;;;;;11.93;2.97;;;;;;;4.83;46.29;99577.69;5068413;28;20082;-70
2022/04/02 10:35:55;;;;;;;4.70;1.85;;;;;;;4.90;45.76;99565.19;5071626;28;20032;-71
2022/04/02 10:38:38;;;;;;;6.00;1.70;;;;;;;4.79;45.30;99568.38;5068729;28;20033;-71
2022/04/02 10:41:11;;;;;;;19.90;4.78;;;;;;;4.64;45.25;99570.06;5064589;28;20517;-71
2022/04/02 10:43:43;;;;;;;7.28;2.85;;;;;;;4.99;44.79;99569.88;5066197;28;20079;-71
2022/04/02 10:46:08;;;;;;;5.88;2.53;;;;;;;5.15;44.70;99567.25;5080398;28;20017;-72
2022/04/02 10:48:53;;;;;;;6.18;2.60;;;;;;;5.07;44.94;99571.09;5048700;28;20028;-71
2022/04/02 10:51:23;;;;;;;9.30;2.45;;;;;;;5.05;44.72;99575.56;5064584;28;20040;-70
2022/04/02 10:53:59;;;;;;;7.28;2.00;;;;;;;4.80;45.67;99581.28;5074165;28;20039;-71
2022/04/02 10:56:31;;;;;;;5.63;2.03;;;;;;;4.93;46.07;99580.59;5069113;28;20029;-71
2022/04/02 10:58:58;;;;;;;8.00;3.20;;;;;;;4.71;47.28;99575.72;5064690;28;20035;-71
2022/04/02 11:01:24;;;;;;;11.95;1.95;;;;;;;4.94;46.79;99585.72;5061730;28;20029;-70
2022/04/02 11:03:55;;;;;;;6.18;2.28;;;;;;;4.79;46.41;99578.78;5065940;28;20041;-69
2022/04/02 11:06:43;;;;;;;5.38;2.35;;;;;;;4.59;46.06;99579.81;5057712;28;20048;-73
2022/04/02 11:09:41;;;;;;;7.57;2.97;;;;;;;4.75;45.44;99585.06;5066954;28;20036;-69
2022/04/02 11:12:08;;;;;;;12.47;2.47;;;;;;;4.88;45.74;99591.22;5061850;28;20044;-69
2022/04/02 11:14:44;;;;;;;3.95;1.90;;;;;;;4.85;45.65;99578.41;5050543;28;20119;-71
2022/04/02 11:17:28;;;;;;;6.07;2.10;;;;;;;5.16;45.24;99577.56;5061719;28;20094;-70
2022/04/02 11:20:03;;;;;;;5.22;2.30;;;;;;;5.16;45.04;99597.53;5069518;28;20090;-69
2022/04/02 11:22:38;;;;;;;7.65;2.63;;;;;;;4.96;45.97;99578.66;5073186;28;20024;-68
2022/04/02 11:25:24;;;;;;;5.22;2.67;;;;;;;5.34;44.99;99580.91;5062984;28;20021;-69
2022/04/02 11:27:54;;;;;;;7.70;3.00;;;;;;;5.15;45.28;99575.88;5062772;28;20029;-71
2022/04/02 11:30:20;;;;;;;4.15;2.00;;;;;;;5.21;45.39;99580.72;5060639;28;21037;-73
2022/04/02 11:32:48;;;;;;;7.55;2.20;;;;;;;4.88;47.82;99587.81;5059627;28;20107;-71
2022/04/02 11:35:24;;;;;;;5.18;2.30;;;;;;;4.77;48.39;99580.59;5057231;28;20143;-70
2022/04/02 11:38:17;;;;;;;15.32;2.92;;;;;;;4.81;49.17;99589.91;5061335;28;20055;-72
2022/04/02 11:40:49;;;;;;;6.30;2.35;;;;;;;5.11;48.15;99584.75;5043971;28;20039;-70
2022/04/02 11:43:17;;;;;;;5.97;2.20;;;;;;;4.89;48.01;99592.91;5055315;28;20036;-69
2022/04/02 11:45:46;;;;;;;8.98;2.25;;;;;;;5.15;48.14;99593.22;5060292;28;20068;-71
2022/04/02 11:48:14;;;;;;;10.25;2.10;;;;;;;5.57;47.13;99589.97;5062005;28;20406;-69
2022/04/02 11:50:43;;;;;;;8.77;3.28;;;;;;;5.35;47.45;99587.75;5061181;28;20068;-70